createdAt,value
2022-08-24T00:00:50.758Z,40.19
2022-08-24T00:05:53.804Z,39.78
2022-08-24T00:10:55.673Z,40.14
2022-08-24T00:15:58.096Z,40.31
2022-08-24T00:21:02.386Z,40.32
2022-08-24T00:26:05.653Z,40.24
2022-08-24T00:31:08.117Z,40.12
2022-08-24T00:36:10.209Z,40.22
2022-08-24T00:41:14.944Z,40.11
2022-08-24T00:46:23.566Z,40.19
2022-08-24T00:51:36.133Z,40.33
2022-08-24T00:56:47.220Z,40.49
2022-08-24T01:01:51.461Z,40.32
2022-08-24T01:06:53.475Z,40.35
2022-08-24T01:11:56.935Z,40.21
2022-08-24T01:17:17.436Z,40.21
2022-08-24T01:22:46.731Z,40.25
2022-08-24T01:27:50.590Z,40.37
2022-08-24T01:33:01.101Z,39.95
2022-08-24T01:38:07.840Z,40.08
2022-08-24T01:43:11.304Z,40.07
2022-08-24T01:48:15.545Z,40.24
2022-08-24T01:53:26.378Z,40.29
2022-08-24T01:58:28.330Z,40.06
2022-08-24T02:03:30.153Z,40.56
2022-08-24T02:08:34.571Z,40.34
2022-08-24T02:13:38.703Z,39.89
2022-08-24T02:18:41.576Z,39.95
2022-08-24T02:23:44.333Z,39.92
2022-08-24T02:28:46.154Z,40.15
2022-08-24T02:33:48.015Z,40.25
2022-08-24T02:38:50.216Z,40.18
2022-08-24T02:43:53.699Z,40.06
2022-08-24T02:48:57.632Z,40.38
2022-08-24T02:54:14.531Z,40.23
2022-08-24T02:59:17.469Z,40.08
2022-08-24T03:04:20.865Z,40.33
2022-08-24T03:09:23.553Z,40.30
2022-08-24T03:14:25.853Z,40.29
2022-08-24T03:19:27.829Z,40.35
2022-08-24T03:24:29.896Z,40.46
2022-08-24T03:29:33.776Z,40.28
2022-08-24T03:34:35.917Z,40.37
2022-08-24T03:39:37.801Z,40.29
2022-08-24T03:44:39.906Z,40.35
2022-08-24T03:49:41.790Z,40.69
2022-08-24T03:54:43.716Z,40.54
2022-08-24T03:59:46.814Z,40.46
2022-08-24T04:04:49.395Z,40.37
2022-08-24T04:09:51.547Z,40.55
2022-08-24T04:14:56.143Z,40.58
2022-08-24T04:19:58.305Z,40.44
2022-08-24T04:25:00.318Z,40.58
2022-08-24T04:30:04.492Z,40.50
2022-08-24T04:35:06.969Z,40.76
2022-08-24T04:40:09.886Z,40.63
2022-08-24T04:45:12.720Z,40.44
2022-08-24T04:50:14.455Z,40.51
2022-08-24T04:55:18.232Z,40.68
2022-08-24T05:00:20.482Z,40.26
2022-08-24T05:05:22.362Z,40.53
2022-08-24T05:10:24.611Z,40.71
2022-08-24T05:15:29.385Z,40.68
2022-08-24T05:20:31.474Z,40.63
2022-08-24T05:25:33.472Z,40.72
2022-08-24T05:30:38.305Z,40.72
2022-08-24T05:35:44.658Z,40.64
2022-08-24T05:40:46.919Z,40.72
2022-08-24T05:45:48.828Z,40.55
2022-08-24T05:50:56.603Z,40.70
2022-08-24T05:55:58.439Z,40.52
2022-08-24T06:01:11.386Z,40.78
2022-08-24T06:06:15.146Z,41.04
2022-08-24T06:11:43.425Z,40.76
2022-08-24T06:16:47.549Z,40.64
2022-08-24T06:21:51.910Z,40.66
2022-08-24T06:27:12.087Z,40.75
2022-08-24T06:32:14.203Z,42.17
2022-08-24T06:37:16.690Z,42.44
2022-08-24T06:42:19.279Z,42.70
2022-08-24T06:47:22.329Z,42.75
2022-08-24T06:52:24.279Z,42.93
2022-08-24T06:57:26.261Z,42.41
2022-08-24T07:02:28.070Z,42.43
2022-08-24T07:07:29.945Z,41.96
2022-08-24T07:12:31.755Z,42.39
2022-08-24T07:17:33.593Z,43.36
2022-08-24T07:22:35.309Z,43.86
2022-08-24T07:27:37.174Z,44.10
2022-08-24T07:32:39.581Z,43.67
2022-08-24T07:37:41.796Z,44.21
2022-08-24T07:42:47.532Z,43.96
2022-08-24T07:47:55.493Z,44.20
2022-08-24T07:52:57.885Z,44.22
2022-08-24T07:58:00.472Z,44.15
2022-08-24T08:03:03.534Z,43.80
2022-08-24T08:08:05.852Z,43.78
2022-08-24T08:13:08.483Z,43.72
2022-08-24T08:18:12.247Z,43.68
2022-08-24T08:23:36.998Z,43.62
2022-08-24T08:28:39.258Z,43.64
2022-08-24T08:33:42.071Z,43.24
2022-08-24T08:38:44.603Z,42.68
2022-08-24T08:44:01.261Z,42.94
2022-08-24T08:49:17.198Z,42.79
2022-08-24T08:54:34.044Z,42.66
2022-08-24T08:59:41.660Z,42.44
2022-08-24T09:05:04.957Z,42.40
2022-08-24T09:10:18.503Z,42.03
2022-08-24T09:15:29.369Z,42.22
2022-08-24T09:20:49.927Z,42.13
2022-08-24T09:26:09.691Z,41.81
2022-08-24T09:31:51.816Z,41.60
2022-08-24T09:37:01.925Z,41.81
2022-08-24T09:42:18.912Z,42.06
2022-08-24T09:47:24.029Z,42.68
2022-08-24T09:52:45.017Z,42.97
2022-08-24T09:58:04.949Z,43.01
2022-08-24T10:03:42.325Z,42.64
2022-08-24T10:09:00.094Z,42.60
2022-08-24T10:14:16.455Z,42.64
2022-08-24T10:19:39.745Z,43.67
2022-08-24T10:25:10.235Z,43.67
2022-08-24T10:30:55.644Z,43.79
2022-08-24T10:36:24.618Z,43.62
2022-08-24T10:41:41.919Z,43.39
2022-08-24T10:46:58.955Z,43.44
2022-08-24T10:52:25.879Z,42.67
2022-08-24T10:57:39.547Z,42.45
2022-08-24T11:02:45.897Z,43.34
2022-08-24T11:07:58.633Z,43.84
2022-08-24T11:13:22.394Z,44.75
2022-08-24T11:18:25.234Z,45.29
2022-08-24T11:23:36.858Z,45.01
2022-08-24T11:28:52.132Z,46.11
2022-08-24T11:34:00.685Z,46.29
2022-08-24T11:39:22.601Z,46.43
2022-08-24T11:44:42.638Z,46.38
2022-08-24T11:50:06.924Z,46.20
2022-08-24T11:55:26.319Z,46.60
2022-08-24T12:00:54.840Z,46.67
2022-08-24T12:06:04.023Z,46.74
2022-08-24T12:11:27.427Z,45.65
2022-08-24T12:16:38.449Z,46.51
2022-08-24T12:21:45.537Z,45.20
2022-08-24T12:27:07.854Z,45.04
2022-08-24T12:32:24.202Z,45.07
2022-08-24T12:37:35.095Z,44.88
2022-08-24T12:42:52.247Z,44.76
2022-08-24T12:48:27.411Z,44.51
2022-08-24T12:53:50.605Z,44.46
2022-08-24T12:59:25.021Z,44.51
2022-08-24T13:04:34.797Z,44.59
2022-08-24T13:09:44.239Z,44.30
2022-08-24T13:14:51.600Z,44.10
2022-08-24T13:20:27.043Z,44.17
2022-08-24T13:25:53.269Z,43.63
2022-08-24T13:31:14.734Z,43.53
2022-08-24T13:36:31.843Z,43.60
2022-08-24T13:42:07.799Z,43.26
2022-08-24T13:47:47.047Z,43.04
2022-08-24T13:53:04.318Z,43.10
2022-08-24T13:58:43.510Z,43.30
2022-08-24T14:03:51.989Z,43.06
2022-08-24T14:09:18.353Z,42.93
2022-08-24T14:14:51.521Z,42.61
2022-08-24T14:20:09.239Z,42.57
2022-08-24T14:25:23.564Z,42.44
2022-08-24T14:30:25.399Z,42.53
2022-08-24T14:35:39.993Z,42.42
2022-08-24T14:41:09.521Z,42.51
2022-08-24T14:46:34.179Z,42.28
2022-08-24T14:52:00.428Z,42.24
2022-08-24T14:57:28.195Z,42.45
2022-08-24T15:02:49.081Z,41.98
2022-08-24T15:08:34.969Z,42.25
2022-08-24T15:13:56.648Z,41.78
2022-08-24T15:19:27.207Z,41.89
2022-08-24T15:24:52.814Z,41.82
2022-08-24T15:29:58.463Z,41.88
2022-08-24T15:35:00.462Z,41.72
2022-08-24T15:40:06.184Z,41.48
2022-08-24T15:45:10.620Z,41.58
2022-08-24T15:50:26.545Z,41.56
2022-08-24T15:55:41.671Z,41.32
2022-08-24T16:01:02.399Z,41.46
2022-08-24T16:06:21.119Z,41.37
2022-08-24T16:11:30.345Z,41.30
2022-08-24T16:16:39.481Z,41.25
2022-08-24T16:22:01.506Z,41.26
2022-08-24T16:27:13.794Z,41.25
2022-08-24T16:32:22.987Z,39.85
2022-08-24T16:37:42.007Z,39.14
2022-08-24T16:42:43.943Z,38.69
2022-08-24T16:47:47.255Z,38.35
2022-08-24T16:52:49.655Z,36.50
2022-08-24T16:57:51.442Z,37.49
2022-08-24T17:02:53.529Z,36.78
2022-08-24T17:07:55.903Z,36.48
2022-08-24T17:12:58.752Z,35.73
2022-08-24T17:18:03.520Z,34.92
2022-08-24T17:23:06.074Z,36.13
2022-08-24T17:28:12.924Z,35.48
2022-08-24T17:33:15.031Z,35.64
2022-08-24T17:38:17.369Z,35.99
2022-08-24T17:43:19.342Z,35.39
2022-08-24T17:48:26.076Z,34.86
2022-08-24T17:53:28.065Z,35.31
2022-08-24T17:58:53.370Z,35.39
2022-08-24T18:03:55.291Z,35.25
2022-08-24T18:09:03.054Z,35.86
2022-08-24T18:14:05.000Z,35.72
2022-08-24T18:19:07.424Z,35.87
2022-08-24T18:24:09.402Z,36.07
2022-08-24T18:29:22.035Z,36.04
2022-08-24T18:34:24.556Z,35.90
2022-08-24T18:39:26.456Z,35.83
2022-08-24T18:44:31.748Z,35.89
2022-08-24T18:49:35.766Z,35.78
2022-08-24T18:54:41.591Z,36.04
2022-08-24T18:59:43.527Z,36.17
2022-08-24T19:04:47.976Z,36.37
2022-08-24T19:09:51.368Z,36.26
2022-08-24T19:14:57.571Z,36.42
2022-08-24T19:19:59.881Z,36.04
2022-08-24T19:25:03.883Z,36.11
2022-08-24T19:30:06.321Z,35.82
2022-08-24T19:35:10.224Z,36.70
2022-08-24T19:40:12.306Z,36.95
2022-08-24T19:45:35.253Z,36.32
2022-08-24T19:50:38.787Z,36.44
2022-08-24T19:55:40.811Z,36.86
2022-08-24T20:00:48.331Z,36.80
2022-08-24T20:05:54.019Z,36.75
2022-08-24T20:10:59.192Z,36.62
2022-08-24T20:16:01.838Z,36.24
2022-08-24T20:21:04.136Z,36.19
2022-08-24T20:26:08.317Z,36.19
2022-08-24T20:31:10.639Z,36.18
2022-08-24T20:36:23.454Z,36.10
2022-08-24T20:41:27.675Z,36.70
2022-08-24T20:46:30.821Z,36.83
2022-08-24T20:51:32.914Z,37.03
2022-08-24T20:56:39.403Z,37.51
2022-08-24T21:01:43.172Z,36.95
2022-08-24T21:06:47.905Z,36.80
2022-08-24T21:11:52.681Z,36.89
2022-08-24T21:16:57.701Z,36.97
2022-08-24T21:21:59.699Z,37.47
2022-08-24T21:27:01.744Z,37.73
2022-08-24T21:32:23.211Z,37.91
2022-08-24T21:37:25.338Z,37.96
2022-08-24T21:42:27.494Z,37.77
2022-08-24T21:47:29.498Z,37.92
2022-08-24T21:52:31.345Z,37.72
2022-08-24T21:57:33.315Z,37.76
2022-08-24T22:02:35.323Z,37.67
2022-08-24T22:07:37.438Z,37.52
2022-08-24T22:12:41.775Z,37.45
2022-08-24T22:17:45.053Z,37.52
2022-08-24T22:22:47.466Z,37.50
2022-08-24T22:27:49.271Z,37.35
2022-08-24T22:32:51.215Z,37.55
2022-08-24T22:37:53.039Z,37.70
2022-08-24T22:42:55.071Z,37.68
2022-08-24T22:47:57.073Z,37.68
2022-08-24T22:52:59.355Z,37.37
2022-08-24T22:58:02.086Z,37.33
2022-08-24T23:03:04.415Z,37.33
2022-08-24T23:08:06.432Z,37.35
2022-08-24T23:13:08.505Z,37.39
2022-08-24T23:18:30.486Z,37.37
2022-08-24T23:23:32.388Z,37.30
2022-08-24T23:28:34.593Z,37.42
2022-08-24T23:33:38.191Z,37.43
2022-08-24T23:38:41.928Z,37.44
2022-08-24T23:43:44.200Z,37.48
2022-08-24T23:48:55.134Z,37.52
2022-08-24T23:54:01.860Z,37.43
2022-08-24T23:59:14.091Z,37.54
